Lambs Grove, Iowa
Current Conditions -  °F | °C
As of 11:15 PM on Wednesday 22 Oct 2014 (Local Time) from KTNU Reporting Station
Broken Clouds Broken Clouds  
Wind Chill: 52°   Ceiling: 8500
Heat Index: 52°   Visibility: 10mi
Dew Point: 41°   Wind: 13mph
Humidity: 67%   Direction: 140°SE
Pressure: 30.13"   Gusts: NA
Location:  41.7317°N, 93.0122°W
Report Text: KTNU 230415Z AUTO 14011KT 10SM BKN085 11/05 A3013 RMK AO2
Loading
Personal Weather Stations






























Interactive Weather Map
Tropical Storm Tracking
New forecast layout! Learn more

10-Day Weather Forecast

Advertisements
Track Severe Weather on mobile